createdAt,value
2022-12-18T00:02:11.634Z,6.90
2022-12-18T00:04:45.317Z,6.15
2022-12-18T00:07:15.678Z,6.82
2022-12-18T00:09:44.178Z,7.22
2022-12-18T00:14:45.249Z,6.47
2022-12-18T00:17:08.914Z,6.25
2022-12-18T00:19:38.373Z,5.25
2022-12-18T00:22:08.048Z,3.22
2022-12-18T00:24:36.946Z,4.15
2022-12-18T00:26:39.262Z,4.70
2022-12-18T00:28:40.798Z,4.47
2022-12-18T00:30:48.311Z,3.10
2022-12-18T00:32:50.019Z,3.70
2022-12-18T00:34:51.491Z,3.42
2022-12-18T00:36:55.842Z,3.00
2022-12-18T00:39:04.843Z,3.63
2022-12-18T00:41:07.043Z,2.67
2022-12-18T00:43:08.511Z,3.15
2022-12-18T00:45:12.939Z,2.70
2022-12-18T00:47:14.692Z,4.50
2022-12-18T00:49:20.231Z,4.43
2022-12-18T00:51:28.470Z,4.05
2022-12-18T00:53:33.050Z,3.65
2022-12-18T00:55:41.184Z,3.47
2022-12-18T00:57:42.774Z,3.88
2022-12-18T00:59:44.558Z,3.75
2022-12-18T01:01:49.249Z,4.10
2022-12-18T01:03:58.541Z,3.53
2022-12-18T01:06:00.127Z,4.13
2022-12-18T01:08:04.668Z,3.00
2022-12-18T01:10:06.905Z,3.83
2022-12-18T01:12:08.444Z,2.65
2022-12-18T01:14:12.955Z,3.40
2022-12-18T01:16:20.833Z,3.17
2022-12-18T01:18:22.400Z,4.68
2022-12-18T01:22:27.951Z,4.07
2022-12-18T01:24:32.387Z,4.00
2022-12-18T01:26:39.791Z,3.85
2022-12-18T01:28:41.811Z,3.88
2022-12-18T01:30:46.119Z,4.55
2022-12-18T01:34:51.947Z,5.05
2022-12-18T01:36:53.451Z,7.20
2022-12-18T01:38:56.037Z,5.97
2022-12-18T01:41:01.210Z,8.15
2022-12-18T01:43:10.681Z,7.40
2022-12-18T01:45:25.922Z,7.32
2022-12-18T01:47:30.435Z,7.10
2022-12-18T01:49:31.988Z,6.50
2022-12-18T01:51:33.941Z,6.80
2022-12-18T01:53:42.670Z,9.05
2022-12-18T01:55:54.315Z,8.02
2022-12-18T01:57:57.291Z,8.45
2022-12-18T02:00:13.286Z,7.30
2022-12-18T02:02:21.671Z,6.40
2022-12-18T02:04:24.474Z,7.30
2022-12-18T02:06:35.414Z,7.38
2022-12-18T02:08:43.000Z,8.27
2022-12-18T02:10:53.133Z,7.22
2022-12-18T02:15:05.248Z,7.60
2022-12-18T02:17:17.511Z,7.25
2022-12-18T02:19:30.224Z,7.28
2022-12-18T02:21:34.675Z,6.38
2022-12-18T02:24:11.248Z,7.25
2022-12-18T02:26:12.701Z,8.05
2022-12-18T02:28:16.564Z,6.60
2022-12-18T02:30:24.644Z,7.13
2022-12-18T02:32:28.038Z,6.78
2022-12-18T02:34:34.031Z,7.32
2022-12-18T02:36:42.822Z,8.23
2022-12-18T02:38:51.575Z,7.97
2022-12-18T02:40:59.564Z,8.48
2022-12-18T02:43:11.730Z,8.68
2022-12-18T02:45:19.049Z,8.45
2022-12-18T02:47:23.017Z,8.27
2022-12-18T02:49:56.908Z,8.00
2022-12-18T02:52:04.547Z,8.60
2022-12-18T02:54:17.190Z,8.30
2022-12-18T02:56:25.020Z,8.45
2022-12-18T02:58:26.499Z,7.97
2022-12-18T03:00:45.885Z,7.05
2022-12-18T03:03:17.328Z,7.70
2022-12-18T03:05:54.566Z,8.23
2022-12-18T03:08:20.837Z,7.97
2022-12-18T03:10:45.958Z,9.80
2022-12-18T03:13:23.946Z,9.27
2022-12-18T03:15:49.614Z,9.80
2022-12-18T03:18:05.537Z,9.85
2022-12-18T03:20:33.523Z,11.60
2022-12-18T03:23:02.271Z,10.13
2022-12-18T03:25:25.768Z,9.02
2022-12-18T03:30:57.147Z,7.63
2022-12-18T03:33:13.874Z,8.38
2022-12-18T03:35:21.746Z,8.95
2022-12-18T03:37:26.141Z,8.73
2022-12-18T03:41:37.767Z,6.18
2022-12-18T03:43:53.753Z,6.95
2022-12-18T03:46:05.329Z,7.82
2022-12-18T03:48:19.284Z,9.27
2022-12-18T03:50:49.320Z,7.68
2022-12-18T03:53:03.002Z,6.88
2022-12-18T03:55:13.991Z,7.15
2022-12-18T03:57:23.274Z,7.78
2022-12-18T03:59:30.738Z,8.00
2022-12-18T04:01:37.897Z,6.32
2022-12-18T04:03:49.169Z,5.18
2022-12-18T04:06:02.082Z,5.72
2022-12-18T04:08:04.108Z,5.53
2022-12-18T04:10:10.378Z,5.57
2022-12-18T04:12:17.912Z,5.57
2022-12-18T04:16:29.694Z,6.93
2022-12-18T04:18:31.395Z,5.93
2022-12-18T04:20:32.979Z,5.90
2022-12-18T04:22:34.514Z,5.22
2022-12-18T04:24:36.077Z,5.85
2022-12-18T04:26:37.652Z,5.47
2022-12-18T04:28:39.352Z,7.50
2022-12-18T04:30:46.884Z,7.70
2022-12-18T04:32:52.454Z,7.25
2022-12-18T04:34:56.809Z,8.38
2022-12-18T04:36:58.470Z,7.55
2022-12-18T04:39:00.413Z,10.10
2022-12-18T04:41:02.134Z,8.20
2022-12-18T04:43:09.697Z,7.35
2022-12-18T04:45:11.501Z,7.07
2022-12-18T04:47:19.106Z,7.82
2022-12-18T04:49:20.826Z,6.30
2022-12-18T04:51:26.448Z,7.20
2022-12-18T04:53:28.393Z,6.10
2022-12-18T04:55:30.026Z,6.05
2022-12-18T04:57:31.542Z,5.68
2022-12-18T05:01:43.157Z,10.38
2022-12-18T05:03:51.854Z,8.80
2022-12-18T05:05:53.554Z,8.45
2022-12-18T05:08:01.172Z,8.35
2022-12-18T05:10:03.386Z,10.23
2022-12-18T05:12:10.883Z,11.23
2022-12-18T05:14:12.473Z,10.30
2022-12-18T05:16:20.071Z,11.13
2022-12-18T05:18:27.685Z,10.35
2022-12-18T05:20:35.001Z,11.40
2022-12-18T05:22:36.554Z,11.25
2022-12-18T05:24:40.688Z,13.65
2022-12-18T05:26:42.198Z,11.75
2022-12-18T05:28:44.006Z,12.35
2022-12-18T05:30:52.333Z,12.38
2022-12-18T05:32:59.727Z,12.65
2022-12-18T05:35:01.318Z,10.90
2022-12-18T05:37:03.053Z,11.93
2022-12-18T05:39:10.608Z,11.43
2022-12-18T05:41:12.402Z,11.48
2022-12-18T05:43:19.380Z,10.43
2022-12-18T05:45:22.644Z,12.68
2022-12-18T05:47:24.145Z,11.65
2022-12-18T05:49:31.531Z,12.52
2022-12-18T05:51:39.363Z,12.63
2022-12-18T05:53:41.786Z,11.80
2022-12-18T05:55:46.463Z,12.52
2022-12-18T05:57:51.002Z,12.70
2022-12-18T06:02:03.235Z,12.23
2022-12-18T06:04:10.760Z,11.45
2022-12-18T06:06:38.386Z,10.77
2022-12-18T06:09:03.846Z,11.88
2022-12-18T06:11:29.016Z,9.82
2022-12-18T06:13:45.973Z,10.82
2022-12-18T06:16:03.039Z,10.15
2022-12-18T06:18:19.865Z,10.48
2022-12-18T06:20:36.127Z,10.60
2022-12-18T06:23:05.826Z,10.52
2022-12-18T06:25:22.989Z,9.18
2022-12-18T06:27:40.772Z,9.15
2022-12-18T06:30:02.750Z,9.32
2022-12-18T06:32:35.883Z,9.43
2022-12-18T06:34:52.902Z,9.27
2022-12-18T06:37:13.749Z,9.88
2022-12-18T06:39:22.864Z,8.70
2022-12-18T06:41:47.527Z,9.30
2022-12-18T06:44:07.766Z,7.90
2022-12-18T06:46:12.901Z,7.72
2022-12-18T06:48:14.576Z,8.35
2022-12-18T06:50:21.807Z,9.07
2022-12-18T06:52:29.257Z,7.38
2022-12-18T06:54:30.763Z,7.35
2022-12-18T06:56:38.125Z,7.88
2022-12-18T06:58:45.565Z,7.75
2022-12-18T07:00:47.631Z,7.85
2022-12-18T07:02:55.253Z,8.68
2022-12-18T07:05:08.988Z,9.40
2022-12-18T07:07:12.331Z,8.18
2022-12-18T07:09:13.797Z,8.02
2022-12-18T07:11:15.514Z,7.72
2022-12-18T07:13:17.328Z,7.85
2022-12-18T07:15:21.479Z,9.38
2022-12-18T07:17:23.011Z,8.52
2022-12-18T07:19:24.589Z,8.02
2022-12-18T07:21:26.390Z,8.75
2022-12-18T07:23:30.915Z,9.07
2022-12-18T07:25:36.022Z,9.75
2022-12-18T07:27:40.397Z,10.52
2022-12-18T07:29:48.283Z,10.45
2022-12-18T07:31:55.827Z,10.02
2022-12-18T07:33:57.445Z,9.50
2022-12-18T07:36:06.217Z,9.45
2022-12-18T07:38:07.798Z,8.40
2022-12-18T07:40:15.034Z,9.95
2022-12-18T07:42:31.551Z,8.63
2022-12-18T07:44:33.246Z,8.75
2022-12-18T07:46:34.727Z,8.88
2022-12-18T07:48:42.768Z,8.43
2022-12-18T07:50:51.404Z,7.63
2022-12-18T07:52:58.725Z,8.90
2022-12-18T07:55:06.390Z,8.25
2022-12-18T07:57:27.370Z,7.50
2022-12-18T07:59:39.832Z,8.55
2022-12-18T08:01:41.620Z,7.47
2022-12-18T08:03:47.222Z,7.38
2022-12-18T08:05:59.156Z,8.52
2022-12-18T08:08:01.189Z,9.70
2022-12-18T08:10:02.920Z,10.68
2022-12-18T08:12:11.853Z,9.68
2022-12-18T08:14:13.374Z,8.13
2022-12-18T08:16:15.482Z,8.52
2022-12-18T08:18:17.064Z,8.02
2022-12-18T08:20:24.617Z,8.65
2022-12-18T08:22:31.763Z,6.78
2022-12-18T08:24:36.211Z,9.00
2022-12-18T08:27:00.814Z,9.32
2022-12-18T08:29:05.426Z,9.05
2022-12-18T08:31:07.637Z,9.70
2022-12-18T08:33:15.349Z,9.23
2022-12-18T08:35:23.042Z,9.02
2022-12-18T08:39:35.835Z,8.35
2022-12-18T08:41:43.043Z,7.18
2022-12-18T08:44:04.483Z,8.93
2022-12-18T08:46:13.037Z,9.13
2022-12-18T08:48:22.013Z,7.70
2022-12-18T08:50:23.880Z,9.15
2022-12-18T08:52:25.437Z,6.85
2022-12-18T08:54:27.133Z,8.02
2022-12-18T08:56:28.809Z,6.18
2022-12-18T08:58:30.527Z,7.57
2022-12-18T09:00:37.639Z,6.85
2022-12-18T09:02:39.528Z,7.75
2022-12-18T09:04:41.618Z,6.10
2022-12-18T09:06:46.003Z,5.80
2022-12-18T09:08:57.065Z,6.22
2022-12-18T09:11:01.757Z,6.20
2022-12-18T09:13:12.789Z,7.07
2022-12-18T09:15:26.857Z,7.28
2022-12-18T09:17:44.699Z,8.18
2022-12-18T09:19:59.640Z,8.05
2022-12-18T09:22:10.977Z,7.82
2022-12-18T09:24:29.446Z,8.43
2022-12-18T09:26:41.397Z,8.95
2022-12-18T09:28:54.274Z,8.73
2022-12-18T09:31:06.801Z,8.02
2022-12-18T09:33:24.327Z,9.25
2022-12-18T09:35:40.012Z,9.98
2022-12-18T09:37:55.312Z,8.75
2022-12-18T09:42:47.900Z,10.98
2022-12-18T09:45:05.394Z,9.30
2022-12-18T09:47:28.598Z,9.48
2022-12-18T09:49:54.780Z,10.52
2022-12-18T09:52:28.919Z,10.18
2022-12-18T09:54:40.538Z,8.52
2022-12-18T09:56:45.183Z,8.93
2022-12-18T09:58:54.419Z,9.27
2022-12-18T10:01:02.950Z,9.02
2022-12-18T10:03:11.807Z,9.77
2022-12-18T10:05:34.531Z,11.00
2022-12-18T10:09:52.817Z,11.95
2022-12-18T10:11:57.138Z,11.95
2022-12-18T10:14:29.328Z,12.90
2022-12-18T10:16:45.961Z,14.25
2022-12-18T10:18:48.383Z,13.25
2022-12-18T10:20:56.307Z,13.23
2022-12-18T10:23:30.726Z,14.85
2022-12-18T10:25:42.560Z,14.73
2022-12-18T10:27:44.686Z,13.75
2022-12-18T10:29:51.962Z,13.45
2022-12-18T10:31:54.547Z,13.45
2022-12-18T10:33:56.230Z,14.27
2022-12-18T10:36:03.972Z,13.90
2022-12-18T10:38:08.505Z,12.43
2022-12-18T10:40:22.540Z,13.75
2022-12-18T10:42:27.489Z,13.88
2022-12-18T10:46:37.352Z,13.32
2022-12-18T10:48:48.605Z,15.82
2022-12-18T10:53:24.310Z,14.18
2022-12-18T10:55:33.451Z,13.15
2022-12-18T10:57:37.760Z,11.75
2022-12-18T11:01:57.391Z,13.23
2022-12-18T11:04:09.763Z,14.23
2022-12-18T11:06:13.151Z,14.30
2022-12-18T11:08:25.330Z,14.20
2022-12-18T11:10:35.051Z,13.65
2022-12-18T11:12:43.448Z,13.13
2022-12-18T11:14:50.619Z,12.70
2022-12-18T11:19:34.498Z,11.82
2022-12-18T11:21:42.566Z,11.90
2022-12-18T11:23:52.335Z,11.68
2022-12-18T11:26:02.790Z,12.05
2022-12-18T11:28:06.155Z,11.63
2022-12-18T11:30:27.452Z,10.30
2022-12-18T11:32:40.006Z,11.65
2022-12-18T11:34:44.108Z,13.38
2022-12-18T11:36:48.555Z,10.55
2022-12-18T11:38:53.421Z,12.38
2022-12-18T11:41:16.294Z,12.95
2022-12-18T11:43:30.524Z,13.90
2022-12-18T11:45:50.993Z,12.25
2022-12-18T11:48:16.366Z,12.05
2022-12-18T11:50:23.275Z,12.43
2022-12-18T11:52:41.362Z,11.60
2022-12-18T11:54:51.650Z,13.13
2022-12-18T11:57:02.515Z,14.15
2022-12-18T11:59:19.405Z,13.45
2022-12-18T12:01:43.671Z,13.32
2022-12-18T12:04:02.449Z,12.70
2022-12-18T12:06:19.724Z,12.13
2022-12-18T12:08:24.302Z,10.95
2022-12-18T12:10:36.546Z,14.07
2022-12-18T12:12:56.202Z,13.18
2022-12-18T12:15:01.157Z,12.38
2022-12-18T12:17:21.742Z,11.57
2022-12-18T12:19:35.978Z,12.27
2022-12-18T12:21:44.367Z,10.98
2022-12-18T12:24:10.743Z,10.57
2022-12-18T12:26:34.655Z,10.65
2022-12-18T12:29:05.543Z,9.75
2022-12-18T12:31:26.083Z,8.98
2022-12-18T12:33:53.329Z,8.00
2022-12-18T12:36:09.379Z,8.90
2022-12-18T12:38:14.236Z,7.63
2022-12-18T12:40:52.077Z,7.68
2022-12-18T12:43:17.793Z,6.90
2022-12-18T12:45:44.905Z,6.97
2022-12-18T12:47:51.544Z,6.35
2022-12-18T12:49:56.905Z,6.07
2022-12-18T12:52:06.764Z,6.22
2022-12-18T12:54:26.418Z,5.93
2022-12-18T12:56:40.150Z,5.35
2022-12-18T12:59:14.030Z,6.03
2022-12-18T13:01:25.806Z,6.75
2022-12-18T13:03:36.220Z,6.63
2022-12-18T13:05:50.074Z,6.03
2022-12-18T13:08:01.215Z,7.10
2022-12-18T13:10:20.588Z,7.15
2022-12-18T13:12:45.578Z,6.20
2022-12-18T13:14:48.631Z,5.53
2022-12-18T13:16:50.061Z,5.88
2022-12-18T13:18:57.816Z,5.65
2022-12-18T13:21:13.818Z,4.93
2022-12-18T13:23:25.043Z,4.28
2022-12-18T13:25:34.423Z,4.15
2022-12-18T13:27:45.952Z,4.82
2022-12-18T13:29:54.069Z,4.25
2022-12-18T13:31:59.939Z,3.92
2022-12-18T13:34:26.148Z,4.57
2022-12-18T13:36:32.949Z,3.47
2022-12-18T13:38:38.384Z,4.32
2022-12-18T13:40:43.162Z,3.95
2022-12-18T13:43:04.534Z,3.50
2022-12-18T13:45:36.810Z,3.63
2022-12-18T13:47:44.550Z,3.55
2022-12-18T13:49:47.859Z,3.38
2022-12-18T13:51:51.650Z,3.42
2022-12-18T13:54:00.537Z,3.10
2022-12-18T13:56:06.343Z,3.63
2022-12-18T13:58:12.901Z,3.38
2022-12-18T14:00:24.606Z,3.40
2022-12-18T14:02:29.820Z,3.55
2022-12-18T14:04:33.308Z,2.75
2022-12-18T14:06:38.000Z,2.80
2022-12-18T14:08:44.475Z,2.22
2022-12-18T14:10:54.683Z,2.35
2022-12-18T14:13:05.206Z,2.55
2022-12-18T14:15:29.257Z,2.90
2022-12-18T14:17:32.547Z,2.53
2022-12-18T14:19:35.076Z,1.60
2022-12-18T14:21:39.394Z,2.40
2022-12-18T14:23:44.714Z,1.95
2022-12-18T14:25:49.585Z,1.77
2022-12-18T14:28:09.361Z,1.98
2022-12-18T14:30:24.973Z,2.05
2022-12-18T14:32:29.297Z,2.08
2022-12-18T14:34:33.756Z,2.00
2022-12-18T14:36:41.056Z,1.75
2022-12-18T14:38:49.297Z,1.80
2022-12-18T14:40:55.718Z,1.95
2022-12-18T14:43:01.247Z,1.98
2022-12-18T14:45:21.630Z,2.10
2022-12-18T14:47:26.086Z,2.15
2022-12-18T14:49:31.891Z,2.03
2022-12-18T14:51:34.610Z,2.38
2022-12-18T14:53:47.744Z,2.10
2022-12-18T14:55:52.119Z,2.05
2022-12-18T14:57:58.365Z,1.67
2022-12-18T15:00:16.113Z,2.03
2022-12-18T15:02:26.470Z,2.20
2022-12-18T15:04:30.156Z,1.75
2022-12-18T15:06:38.964Z,1.85
2022-12-18T15:08:47.360Z,2.20
2022-12-18T15:10:49.143Z,1.65
2022-12-18T15:12:56.558Z,1.67
2022-12-18T15:14:58.639Z,1.30
2022-12-18T15:17:01.326Z,1.73
2022-12-18T15:19:02.909Z,1.60
2022-12-18T15:21:12.362Z,2.42
2022-12-18T15:23:17.027Z,2.13
2022-12-18T15:25:33.196Z,2.30
2022-12-18T15:28:03.464Z,2.40
2022-12-18T15:30:30.651Z,3.15
2022-12-18T15:32:53.576Z,2.47
2022-12-18T15:35:30.429Z,2.63
2022-12-18T15:38:04.766Z,3.35
2022-12-18T15:40:40.697Z,2.20
2022-12-18T15:43:26.660Z,2.33
2022-12-18T15:45:56.532Z,2.40
2022-12-18T15:48:25.676Z,2.78
2022-12-18T15:50:49.052Z,2.95
2022-12-18T15:53:19.633Z,2.50
2022-12-18T15:56:02.940Z,2.90
2022-12-18T15:58:25.783Z,2.83
2022-12-18T16:02:57.849Z,3.35
2022-12-18T16:05:00.010Z,3.67
2022-12-18T16:07:22.909Z,2.50
2022-12-18T16:09:26.255Z,3.00
2022-12-18T16:11:44.522Z,2.88
2022-12-18T16:13:46.067Z,2.60
2022-12-18T16:15:51.469Z,2.38
2022-12-18T16:17:54.317Z,2.67
2022-12-18T16:19:58.413Z,2.78
2022-12-18T16:22:15.395Z,3.83
2022-12-18T16:24:46.769Z,3.72
2022-12-18T16:26:49.560Z,3.75
2022-12-18T16:28:54.214Z,3.60
2022-12-18T16:31:07.074Z,2.90
2022-12-18T16:33:12.454Z,2.78
2022-12-18T16:35:15.241Z,2.92
2022-12-18T16:37:17.813Z,3.42
2022-12-18T16:39:24.019Z,4.68
2022-12-18T16:41:34.772Z,3.50
2022-12-18T16:43:39.839Z,3.17
2022-12-18T16:45:41.669Z,3.30
2022-12-18T16:47:43.930Z,3.78
2022-12-18T16:50:11.190Z,3.40
2022-12-18T16:52:13.168Z,3.40
2022-12-18T16:54:19.118Z,3.90
2022-12-18T16:56:25.479Z,4.22
2022-12-18T16:58:26.945Z,4.47
2022-12-18T17:00:31.602Z,3.08
2022-12-18T17:02:36.597Z,4.00
2022-12-18T17:04:44.758Z,4.30
2022-12-18T17:06:51.721Z,3.55
2022-12-18T17:08:58.632Z,3.58
2022-12-18T17:11:07.274Z,3.20
2022-12-18T17:13:12.675Z,3.55
2022-12-18T17:17:21.479Z,4.60
2022-12-18T17:19:26.350Z,4.50
2022-12-18T17:21:27.863Z,4.38
2022-12-18T17:25:34.116Z,5.25
2022-12-18T17:27:36.567Z,4.35
2022-12-18T17:29:48.059Z,6.43
2022-12-18T17:31:56.382Z,5.28
2022-12-18T17:34:02.771Z,4.47
2022-12-18T17:36:09.244Z,4.97
2022-12-18T17:38:11.216Z,5.15
2022-12-18T17:40:15.559Z,4.68
2022-12-18T17:42:18.216Z,4.97
2022-12-18T17:44:21.215Z,5.15
2022-12-18T17:46:26.236Z,5.25
2022-12-18T17:48:28.553Z,4.82
2022-12-18T17:50:35.593Z,6.30
2022-12-18T17:52:43.372Z,5.90
2022-12-18T17:54:50.851Z,5.75
2022-12-18T17:59:23.532Z,4.72
2022-12-18T18:01:26.922Z,5.78
2022-12-18T18:03:28.720Z,7.22
2022-12-18T18:05:33.370Z,7.05
2022-12-18T18:07:40.623Z,7.47
2022-12-18T18:12:04.570Z,6.32
2022-12-18T18:14:25.211Z,6.43
2022-12-18T18:16:32.140Z,6.78
2022-12-18T18:18:34.239Z,7.95
2022-12-18T18:20:41.554Z,7.07
2022-12-18T18:22:49.684Z,7.05
2022-12-18T18:24:51.265Z,7.03
2022-12-18T18:29:05.148Z,8.40
2022-12-18T18:31:08.369Z,7.88
2022-12-18T18:33:12.159Z,9.18
2022-12-18T18:35:52.297Z,7.93
2022-12-18T18:37:51.737Z,9.50
2022-12-18T18:40:01.392Z,8.35
2022-12-18T18:42:12.365Z,9.55
2022-12-18T18:44:17.606Z,8.30
2022-12-18T18:46:26.446Z,10.07
2022-12-18T18:48:33.485Z,9.50
2022-12-18T18:50:41.374Z,7.95
2022-12-18T18:52:50.998Z,9.02
2022-12-18T18:55:12.951Z,9.30
2022-12-18T18:57:21.339Z,9.20
2022-12-18T18:59:33.117Z,8.98
2022-12-18T19:01:39.475Z,8.80
2022-12-18T19:03:50.321Z,9.80
2022-12-18T19:06:01.343Z,11.63
2022-12-18T19:08:05.827Z,8.68
2022-12-18T19:10:13.051Z,8.70
2022-12-18T19:12:49.957Z,9.23
2022-12-18T19:14:54.344Z,10.38
2022-12-18T19:16:58.555Z,9.45
2022-12-18T19:19:01.876Z,8.98
2022-12-18T19:21:06.284Z,9.77
2022-12-18T19:23:14.077Z,9.02
2022-12-18T19:25:16.016Z,9.60
2022-12-18T19:27:20.625Z,9.98
2022-12-18T19:29:25.333Z,9.85
2022-12-18T19:31:35.110Z,11.00
2022-12-18T19:34:06.069Z,10.45
2022-12-18T19:36:25.764Z,9.70
2022-12-18T19:38:30.335Z,11.70
2022-12-18T19:40:36.370Z,9.75
2022-12-18T19:42:38.490Z,9.05
2022-12-18T19:44:43.227Z,8.85
2022-12-18T19:46:53.454Z,9.68
2022-12-18T19:48:59.158Z,8.38
2022-12-18T19:51:13.309Z,8.73
2022-12-18T19:53:15.390Z,9.82
2022-12-18T19:55:19.186Z,10.02
2022-12-18T19:57:20.673Z,9.52
2022-12-18T19:59:29.343Z,10.27
2022-12-18T20:01:34.418Z,10.63
2022-12-18T20:04:08.615Z,9.73
2022-12-18T20:06:33.271Z,10.45
2022-12-18T20:08:38.097Z,8.55
2022-12-18T20:10:50.176Z,8.73
2022-12-18T20:12:58.415Z,9.23
2022-12-18T20:17:34.233Z,10.07
2022-12-18T20:19:39.012Z,8.32
2022-12-18T20:21:42.333Z,8.43
2022-12-18T20:23:52.204Z,9.73
2022-12-18T20:25:58.829Z,7.43
2022-12-18T20:28:01.531Z,9.63
2022-12-18T20:30:03.749Z,9.57
2022-12-18T20:32:06.542Z,8.55
2022-12-18T20:34:08.449Z,9.18
2022-12-18T20:36:13.760Z,6.93
2022-12-18T20:38:16.394Z,6.00
2022-12-18T20:40:47.121Z,8.63
2022-12-18T20:42:49.594Z,8.38
2022-12-18T20:44:51.502Z,6.55
2022-12-18T20:46:54.318Z,7.68
2022-12-18T20:49:21.873Z,7.97
2022-12-18T20:51:23.383Z,8.77
2022-12-18T20:55:33.185Z,8.25
2022-12-18T20:57:34.574Z,11.15
2022-12-18T20:59:40.908Z,9.25
2022-12-18T21:01:55.713Z,10.27
2022-12-18T21:04:04.915Z,8.75
2022-12-18T21:06:06.847Z,9.20
2022-12-18T21:08:11.152Z,8.95
2022-12-18T21:10:21.714Z,12.02
2022-12-18T21:12:41.674Z,9.88
2022-12-18T21:15:15.185Z,8.90
2022-12-18T21:17:19.366Z,11.00
2022-12-18T21:19:27.136Z,9.25
2022-12-18T21:21:36.537Z,9.35
2022-12-18T21:24:08.179Z,8.10
2022-12-18T21:26:16.957Z,8.02
2022-12-18T21:28:24.943Z,8.90
2022-12-18T21:30:30.461Z,7.32
2022-12-18T21:32:33.558Z,9.40
2022-12-18T21:34:35.491Z,8.40
2022-12-18T21:36:37.491Z,7.97
2022-12-18T21:39:00.022Z,7.55
2022-12-18T21:41:31.821Z,9.23
2022-12-18T21:43:58.235Z,10.50
2022-12-18T21:46:04.631Z,9.32
2022-12-18T21:48:09.527Z,7.78
2022-12-18T21:50:39.029Z,7.88
2022-12-18T21:52:44.505Z,7.72
2022-12-18T21:54:51.287Z,5.80
2022-12-18T21:56:58.645Z,7.25
2022-12-18T21:59:00.342Z,6.35
2022-12-18T22:01:02.214Z,6.65
2022-12-18T22:03:18.646Z,7.22
2022-12-18T22:05:20.804Z,6.93
2022-12-18T22:07:29.297Z,6.90
2022-12-18T22:09:34.872Z,8.63
2022-12-18T22:11:37.153Z,6.57
2022-12-18T22:13:39.062Z,7.32
2022-12-18T22:17:44.591Z,7.68
2022-12-18T22:19:46.280Z,9.07
2022-12-18T22:21:49.214Z,7.88
2022-12-18T22:24:20.301Z,5.95
2022-12-18T22:26:22.890Z,7.50
2022-12-18T22:28:43.262Z,7.85
2022-12-18T22:30:46.707Z,6.82
2022-12-18T22:32:54.378Z,6.43
2022-12-18T22:35:01.699Z,5.85
2022-12-18T22:37:12.481Z,6.57
2022-12-18T22:39:18.277Z,6.28
2022-12-18T22:41:20.240Z,7.15
2022-12-18T22:43:21.879Z,5.78
2022-12-18T22:45:26.269Z,5.38
2022-12-18T22:47:30.953Z,5.68
2022-12-18T22:49:35.793Z,5.75
2022-12-18T22:51:40.235Z,5.18
2022-12-18T22:53:42.386Z,5.13
2022-12-18T22:55:51.903Z,4.35
2022-12-18T22:57:57.201Z,4.95
2022-12-18T23:00:01.276Z,3.88
2022-12-18T23:04:06.817Z,4.13
2022-12-18T23:06:11.124Z,4.40
2022-12-18T23:08:15.508Z,3.60
2022-12-18T23:10:17.339Z,3.75
2022-12-18T23:12:21.895Z,4.25
2022-12-18T23:14:26.329Z,4.50
2022-12-18T23:16:35.105Z,4.07
2022-12-18T23:18:39.442Z,3.30
2022-12-18T23:20:40.891Z,3.75
2022-12-18T23:22:49.161Z,4.97
2022-12-18T23:24:50.634Z,4.78
2022-12-18T23:26:52.101Z,4.75
2022-12-18T23:28:55.433Z,3.97
2022-12-18T23:31:12.198Z,4.80
2022-12-18T23:33:15.946Z,4.10
2022-12-18T23:35:23.203Z,4.78
2022-12-18T23:37:57.002Z,4.88
2022-12-18T23:39:49.159Z,4.70
2022-12-18T23:41:52.853Z,4.65
2022-12-18T23:43:59.881Z,5.40
2022-12-18T23:46:09.523Z,4.40
2022-12-18T23:48:11.533Z,4.82
2022-12-18T23:50:15.658Z,4.60
2022-12-18T23:54:29.324Z,5.20
2022-12-18T23:56:35.844Z,5.75
2022-12-18T23:58:41.072Z,5.78
